Port Saint Lucie, FL

11:56 PM EDT on August 31, 2016 (GMT -0400)
The FALLS at Lost Lakes | | Change Station

Elev 39 ft 27.11 °N, 80.19 °W | Updated 4 seconds ago

Light Rain
Light Rain
73.3 °F
Feels Like 68 °F
N
0.0
Wind Variable Wind from South
Gusts 2.0 mph

Today
High -- | Low -- °F
--% Chance of Precip.
Yesterday
High -- | Low -- °F
Precip. -- in
Pressure 30.02 in
Visibility 7.0 miles
Clouds Few 4000 ft
Scattered Clouds 8000 ft
Overcast 11000 ft
Heat Index 68 °F
Dew Point 73.0 °F
Humidity 99%
Rainfall 0.43 in
Snow Depth Not available.
7:00 AM 7:42 PM
Waning Crescent, 0% visible
METAR KFPR 010353Z AUTO 26007KT 7SM -RA FEW040 SCT080 OVC110 23/22 A3002 RMK AO2 PK WND 20030/0323 LTG DSNT W AND NW RAB20 SLP164 P0015 T02280222
Pressure 30.02 in
Visibility 7.0 miles
Clouds Few 4000 ft
Scattered Clouds 8000 ft
Overcast 11000 ft
Heat Index 68 °F
Dew Point 73.0 °F
Humidity 99%
Rainfall 0.43 in
Snow Depth Not available.
7:00 AM 7:42 PM
Waning Crescent, 0% visible
METAR KFPR 010353Z AUTO 26007KT 7SM -RA FEW040 SCT080 OVC110 23/22 A3002 RMK AO2 PK WND 20030/0323 LTG DSNT W AND NW RAB20 SLP164 P0015 T02280222

10-Day Weather Forecast

Almanac

Astronomy

Aug. 31, 2016 Rise Set
Actual Time
Civil Twilight
Nautical Twilight
Astronomical Twilight
Moon
Length of Visible Light
Length of Day
Tomorrow will be .
, % of the Moon is Illuminated

Today's Extremes

State Highs State Lows

Community

WunderPhotos

Upload Photos

1,936,291 photos uploaded!

WunderBlog® & News

Nearby

Air Quality

  Air Quality AQ Index Pollutant
Not available.

Snow Depth

Station Depth Elevation

Earthquake Activity

City Distance Mag. Time & Date
Minimum magnitude displayed is 2.5.

Coastal Water Temperatures

Place Temperature

Stations

Nearby Weather Stations

Station Location Temp. Windchill Dew Point Humidity Wind Precip. Elev Updated Type
                   

Watches & Warnings

There are currently no watches in effect.